createdAt,value
2018-02-11T00:00:58.731Z,3.30
2018-02-11T00:03:26.948Z,3.30
2018-02-11T00:05:55.133Z,3.30
2018-02-11T00:08:23.340Z,3.20
2018-02-11T00:10:51.580Z,3.20
2018-02-11T00:13:19.773Z,3.20
2018-02-11T00:15:47.989Z,3.20
2018-02-11T00:18:16.992Z,3.00
2018-02-11T00:20:45.173Z,3.00
2018-02-11T00:23:13.384Z,3.10
2018-02-11T00:25:41.608Z,3.20
2018-02-11T00:28:09.796Z,3.10
2018-02-11T00:30:38.021Z,3.10
2018-02-11T00:33:06.208Z,2.90
2018-02-11T00:35:34.521Z,2.80
2018-02-11T00:38:08.181Z,2.90
2018-02-11T00:40:36.397Z,2.80
2018-02-11T00:43:04.653Z,2.80
2018-02-11T00:45:33.609Z,2.90
2018-02-11T00:48:01.815Z,2.90
2018-02-11T00:50:30.807Z,2.90
2018-02-11T00:52:59.764Z,2.80
2018-02-11T00:55:27.991Z,2.80
2018-02-11T00:57:56.228Z,2.90
2018-02-11T01:00:24.436Z,2.90
2018-02-11T01:02:52.644Z,2.90
2018-02-11T01:05:21.560Z,2.90
2018-02-11T01:07:49.787Z,2.90
2018-02-11T01:10:17.969Z,3.00
2018-02-11T01:12:46.176Z,2.80
2018-02-11T01:15:14.908Z,2.80
2018-02-11T01:17:43.123Z,2.60
2018-02-11T01:20:11.446Z,2.60
2018-02-11T01:22:40.463Z,2.50
2018-02-11T01:25:08.658Z,2.50
2018-02-11T01:27:36.888Z,2.50
2018-02-11T01:30:05.135Z,2.50
2018-02-11T01:32:33.344Z,2.60
2018-02-11T01:35:01.561Z,2.60
2018-02-11T01:37:30.061Z,2.60
2018-02-11T01:39:59.041Z,2.50
2018-02-11T01:42:27.248Z,2.50
2018-02-11T01:44:56.263Z,2.50
2018-02-11T01:47:24.481Z,2.50
2018-02-11T01:50:10.716Z,2.50
2018-02-11T01:52:39.688Z,2.70
2018-02-11T01:55:07.880Z,2.60
2018-02-11T01:57:36.845Z,2.80
2018-02-11T02:00:05.051Z,2.80
2018-02-11T02:02:33.264Z,2.80
2018-02-11T02:05:01.509Z,2.90
2018-02-11T02:07:29.820Z,2.70
2018-02-11T02:09:58.006Z,2.60
2018-02-11T02:12:26.398Z,2.70
2018-02-11T02:14:54.589Z,2.60
2018-02-11T02:17:23.566Z,2.80
2018-02-11T02:19:51.789Z,2.70
2018-02-11T02:22:19.987Z,2.80
2018-02-11T02:24:48.173Z,2.60
2018-02-11T02:27:16.405Z,2.60
2018-02-11T02:29:44.617Z,2.60
2018-02-11T02:32:12.833Z,2.50
2018-02-11T02:34:41.033Z,2.60
2018-02-11T02:37:09.221Z,2.60
2018-02-11T02:39:37.629Z,2.40
2018-02-11T02:42:06.181Z,2.50
2018-02-11T02:44:34.377Z,2.60
2018-02-11T02:47:02.950Z,2.60
2018-02-11T02:49:31.137Z,2.50
2018-02-11T02:51:59.361Z,2.30
2018-02-11T02:54:27.905Z,2.30
2018-02-11T02:56:56.109Z,2.40
2018-02-11T02:59:24.513Z,2.40
2018-02-11T03:01:52.769Z,2.40
2018-02-11T03:04:20.985Z,2.30
2018-02-11T03:06:49.164Z,2.20
2018-02-11T03:09:17.472Z,2.20
2018-02-11T03:11:45.724Z,2.40
2018-02-11T03:14:13.900Z,2.30
2018-02-11T03:16:42.133Z,2.20
2018-02-11T03:19:10.341Z,2.30
2018-02-11T03:21:38.545Z,2.20
2018-02-11T03:24:06.792Z,2.20
2018-02-11T03:26:35.090Z,2.30
2018-02-11T03:29:04.048Z,2.40
2018-02-11T03:31:32.269Z,2.40
2018-02-11T03:34:00.472Z,2.50
2018-02-11T03:36:28.680Z,2.40
2018-02-11T03:38:56.901Z,2.40
2018-02-11T03:41:25.132Z,2.40
2018-02-11T03:43:53.336Z,2.30
2018-02-11T03:46:21.577Z,2.30
2018-02-11T03:48:49.776Z,2.20
2018-02-11T03:51:17.961Z,2.30
2018-02-11T03:53:46.168Z,2.40
2018-02-11T03:56:14.353Z,2.40
2018-02-11T03:58:42.679Z,2.40
2018-02-11T04:01:10.888Z,2.40
2018-02-11T04:03:39.100Z,2.40
2018-02-11T04:06:08.090Z,2.30
2018-02-11T04:08:36.290Z,2.20
2018-02-11T04:11:04.476Z,2.10
2018-02-11T04:13:32.692Z,2.30
2018-02-11T04:16:00.986Z,2.30
2018-02-11T04:18:29.257Z,2.20
2018-02-11T04:20:57.472Z,2.30
2018-02-11T04:23:25.682Z,2.30
2018-02-11T04:25:53.926Z,2.30
2018-02-11T04:28:22.132Z,2.40
2018-02-11T04:30:50.321Z,2.50
2018-02-11T04:33:18.661Z,2.50
2018-02-11T04:35:46.872Z,2.30
2018-02-11T04:38:15.173Z,2.40
2018-02-11T04:40:44.302Z,2.50
2018-02-11T04:43:12.512Z,2.40
2018-02-11T04:45:40.696Z,2.50
2018-02-11T04:48:09.078Z,2.50
2018-02-11T04:50:37.284Z,2.60
2018-02-11T04:53:05.489Z,2.60
2018-02-11T04:55:33.694Z,2.50
2018-02-11T04:58:01.884Z,2.60
2018-02-11T05:00:30.880Z,2.40
2018-02-11T05:02:59.853Z,2.50
2018-02-11T05:05:28.157Z,2.50
2018-02-11T05:07:56.376Z,2.50
2018-02-11T05:10:24.584Z,2.50
2018-02-11T05:12:53.551Z,2.50
2018-02-11T05:15:21.755Z,2.50
2018-02-11T05:17:50.732Z,2.50
2018-02-11T05:20:19.247Z,2.60
2018-02-11T05:22:47.505Z,2.50
2018-02-11T05:25:16.481Z,2.70
2018-02-11T05:27:44.673Z,2.70
2018-02-11T05:30:13.672Z,2.60
2018-02-11T05:32:41.928Z,2.60
2018-02-11T05:35:10.876Z,2.70
2018-02-11T05:37:39.080Z,2.70
2018-02-11T05:40:07.282Z,2.60
2018-02-11T05:42:36.248Z,2.70
2018-02-11T05:45:04.462Z,2.70
2018-02-11T05:47:32.920Z,2.80
2018-02-11T05:50:01.892Z,2.80
2018-02-11T05:52:30.424Z,2.80
2018-02-11T05:54:58.668Z,2.80
2018-02-11T05:57:27.689Z,2.70
2018-02-11T05:59:55.861Z,2.70
2018-02-11T06:02:24.091Z,2.60
2018-02-11T06:04:52.276Z,2.70
2018-02-11T06:07:21.304Z,2.70
2018-02-11T06:09:49.516Z,2.70
2018-02-11T06:12:17.701Z,2.60
2018-02-11T06:14:45.903Z,2.70
2018-02-11T06:17:14.915Z,2.90
2018-02-11T06:19:43.113Z,2.70
2018-02-11T06:22:11.305Z,2.80
2018-02-11T06:24:39.612Z,2.70
2018-02-11T06:27:08.564Z,2.90
2018-02-11T06:29:36.745Z,2.90
2018-02-11T06:32:05.037Z,2.90
2018-02-11T06:34:34.050Z,2.80
2018-02-11T06:37:02.260Z,2.70
2018-02-11T06:39:30.488Z,2.90
2018-02-11T06:41:59.449Z,3.00
2018-02-11T06:44:27.764Z,3.00
2018-02-11T06:46:55.969Z,2.80
2018-02-11T06:49:24.165Z,2.80
2018-02-11T06:51:52.417Z,2.90
2018-02-11T06:54:20.604Z,2.80
2018-02-11T06:56:48.827Z,2.80
2018-02-11T06:59:17.828Z,2.80
2018-02-11T07:01:46.046Z,2.80
2018-02-11T07:04:14.244Z,2.90
2018-02-11T07:06:43.112Z,2.80
2018-02-11T07:09:11.508Z,2.90
2018-02-11T07:11:39.720Z,2.80
2018-02-11T07:14:07.905Z,3.00
2018-02-11T07:16:36.127Z,3.00
2018-02-11T07:19:04.320Z,3.10
2018-02-11T07:21:33.268Z,3.20
2018-02-11T07:24:01.520Z,3.20
2018-02-11T07:26:29.812Z,3.30
2018-02-11T07:28:58.048Z,3.40
2018-02-11T07:31:27.127Z,3.40
2018-02-11T07:33:56.077Z,3.50
2018-02-11T07:36:24.305Z,3.40
2018-02-11T07:38:53.276Z,3.40
2018-02-11T07:41:21.476Z,3.40
2018-02-11T07:43:49.724Z,3.50
2018-02-11T07:46:17.923Z,3.50
2018-02-11T07:48:46.892Z,3.70
2018-02-11T07:51:15.942Z,3.70
2018-02-11T07:53:44.152Z,3.70
2018-02-11T07:56:12.348Z,3.70
2018-02-11T07:58:41.317Z,3.80
2018-02-11T08:01:09.556Z,3.80
2018-02-11T08:03:37.746Z,4.00
2018-02-11T08:06:05.992Z,3.90
2018-02-11T08:08:34.226Z,3.80
2018-02-11T08:11:03.196Z,3.90
2018-02-11T08:13:31.429Z,3.90
2018-02-11T08:15:59.637Z,3.90
2018-02-11T08:18:27.826Z,3.90
2018-02-11T08:20:56.209Z,3.90
2018-02-11T08:23:24.396Z,3.80
2018-02-11T08:25:53.360Z,3.70
2018-02-11T08:28:21.612Z,3.70
2018-02-11T08:30:49.793Z,3.70
2018-02-11T08:33:18.038Z,3.70
2018-02-11T08:35:46.288Z,3.70
2018-02-11T08:38:15.246Z,3.70
2018-02-11T08:40:43.561Z,3.70
2018-02-11T08:43:12.539Z,3.70
2018-02-11T08:45:41.489Z,3.80
2018-02-11T08:48:09.728Z,3.80
2018-02-11T08:50:37.940Z,3.90
2018-02-11T08:53:06.125Z,4.00
2018-02-11T08:55:34.404Z,4.10
2018-02-11T08:58:02.608Z,4.20
2018-02-11T09:00:31.577Z,4.50
2018-02-11T09:02:59.892Z,4.50
2018-02-11T09:05:28.092Z,4.60
2018-02-11T09:07:57.033Z,4.60
2018-02-11T09:10:26.026Z,4.80
2018-02-11T09:12:54.977Z,4.80
2018-02-11T09:15:23.204Z,4.70
2018-02-11T09:17:52.153Z,5.10
2018-02-11T09:20:20.345Z,5.10
2018-02-11T09:22:48.594Z,5.20
2018-02-11T09:25:16.786Z,5.20
2018-02-11T09:27:44.989Z,5.20
2018-02-11T09:30:13.988Z,5.20
2018-02-11T09:32:42.224Z,5.20
2018-02-11T09:35:10.405Z,5.30
2018-02-11T09:37:38.617Z,5.40
2018-02-11T09:40:06.817Z,5.50
2018-02-11T09:42:35.034Z,5.70
2018-02-11T09:45:04.266Z,5.50
2018-02-11T09:47:32.476Z,5.50
2018-02-11T09:50:00.658Z,5.40
2018-02-11T09:52:28.869Z,5.60
2018-02-11T09:54:57.841Z,5.90
2018-02-11T09:57:26.853Z,5.90
2018-02-11T09:59:55.811Z,5.80
2018-02-11T10:02:24.020Z,5.80
2018-02-11T10:04:52.985Z,5.70
2018-02-11T10:07:21.279Z,5.70
2018-02-11T10:09:50.270Z,5.60
2018-02-11T10:12:19.216Z,5.70
2018-02-11T10:14:47.401Z,5.70
2018-02-11T10:17:15.621Z,5.80
2018-02-11T10:19:43.799Z,5.80
2018-02-11T10:22:12.181Z,5.80
2018-02-11T10:24:40.364Z,6.00
2018-02-11T10:27:08.549Z,6.10
2018-02-11T10:29:36.761Z,6.20
2018-02-11T10:32:04.986Z,6.50
2018-02-11T10:34:33.201Z,6.70
2018-02-11T10:37:01.420Z,6.90
2018-02-11T10:39:29.621Z,7.20
2018-02-11T10:41:57.828Z,7.30
2018-02-11T10:44:26.296Z,6.70
2018-02-11T10:46:54.481Z,7.40
2018-02-11T10:49:22.691Z,7.90
2018-02-11T10:51:50.933Z,7.70
2018-02-11T10:54:19.669Z,7.80
2018-02-11T10:56:47.876Z,8.00
2018-02-11T10:59:16.165Z,7.80
2018-02-11T11:01:44.345Z,7.50
2018-02-11T11:04:13.340Z,7.40
2018-02-11T11:06:42.315Z,7.10
2018-02-11T11:09:10.628Z,7.10
2018-02-11T11:11:38.848Z,6.80
2018-02-11T11:14:07.068Z,6.90
2018-02-11T11:16:35.320Z,6.70
2018-02-11T11:19:03.700Z,6.60
2018-02-11T11:21:31.972Z,6.50
2018-02-11T11:24:00.178Z,6.50
2018-02-11T11:26:28.494Z,6.40
2018-02-11T11:28:56.705Z,6.40
2018-02-11T11:31:25.754Z,6.40
2018-02-11T11:33:53.936Z,6.40
2018-02-11T11:36:22.160Z,6.20
2018-02-11T11:38:52.358Z,6.10
2018-02-11T11:41:20.581Z,6.10
2018-02-11T11:43:48.788Z,6.00
2018-02-11T11:46:16.984Z,6.00
2018-02-11T11:48:45.185Z,5.90
2018-02-11T11:51:13.405Z,6.00
2018-02-11T11:53:41.588Z,6.00
2018-02-11T11:56:09.833Z,5.80
2018-02-11T11:58:38.040Z,5.90
2018-02-11T12:01:06.217Z,6.20
2018-02-11T12:03:34.566Z,6.20
2018-02-11T12:06:02.757Z,6.30
2018-02-11T12:08:30.960Z,6.30
2018-02-11T12:11:00.013Z,6.10
2018-02-11T12:13:28.204Z,6.10
2018-02-11T12:15:56.404Z,5.90
2018-02-11T12:18:25.398Z,5.90
2018-02-11T12:20:54.362Z,5.90
2018-02-11T12:23:22.567Z,5.90
2018-02-11T12:25:51.633Z,6.00
2018-02-11T12:28:19.808Z,6.00
2018-02-11T12:30:48.014Z,6.00
2018-02-11T12:33:16.219Z,6.00
2018-02-11T12:35:44.413Z,6.00
2018-02-11T12:38:12.585Z,5.90
2018-02-11T12:40:40.812Z,5.80
2018-02-11T12:43:09.016Z,5.70
2018-02-11T12:45:37.230Z,5.60
2018-02-11T12:48:06.236Z,5.20
2018-02-11T12:50:35.208Z,5.00
2018-02-11T12:53:03.489Z,5.00
2018-02-11T12:55:31.669Z,5.00
2018-02-11T12:58:00.649Z,4.60
2018-02-11T13:00:29.582Z,4.60
2018-02-11T13:02:57.788Z,4.60
2018-02-11T13:05:25.988Z,4.50
2018-02-11T13:07:54.393Z,4.50
2018-02-11T13:10:22.578Z,4.50
2018-02-11T13:12:50.775Z,4.50
2018-02-11T13:15:19.027Z,4.60
2018-02-11T13:17:47.221Z,4.50
2018-02-11T13:20:15.425Z,4.50
2018-02-11T13:22:43.644Z,4.20
2018-02-11T13:25:11.853Z,4.30
2018-02-11T13:27:40.089Z,4.30
2018-02-11T13:30:08.269Z,4.30
2018-02-11T13:32:36.444Z,4.40
2018-02-11T13:35:04.640Z,4.30
2018-02-11T13:37:32.840Z,4.40
2018-02-11T13:40:01.153Z,4.50
2018-02-11T13:42:29.369Z,4.60
2018-02-11T13:44:57.553Z,4.50
2018-02-11T13:47:25.733Z,4.50
2018-02-11T15:11:51.636Z,4.40
2018-02-11T15:14:22.024Z,3.30
2018-02-11T15:16:50.997Z,3.30
2018-02-11T15:19:19.200Z,3.30
2018-02-11T15:21:47.397Z,3.30
2018-02-11T15:24:15.581Z,3.30
2018-02-11T15:26:43.895Z,3.30
2018-02-11T15:29:12.088Z,3.40
2018-02-11T15:31:41.188Z,3.40
2018-02-11T15:34:09.427Z,3.40
2018-02-11T15:36:37.633Z,3.40
2018-02-11T15:39:05.867Z,3.40
2018-02-11T15:41:34.049Z,3.50
2018-02-11T15:44:02.237Z,3.40
2018-02-11T15:46:31.412Z,3.50
2018-02-11T15:48:59.615Z,3.50
2018-02-11T15:51:27.816Z,3.50
2018-02-11T15:53:56.048Z,3.50
2018-02-11T15:56:24.229Z,3.60
2018-02-11T15:58:53.190Z,3.60
2018-02-11T16:01:21.597Z,3.60
2018-02-11T16:03:49.792Z,3.80
2018-02-11T16:06:17.998Z,3.80
2018-02-11T16:08:46.314Z,3.80
2018-02-11T16:11:15.185Z,3.70
2018-02-11T16:13:44.016Z,3.70
2018-02-11T16:16:12.369Z,3.70
2018-02-11T16:18:40.645Z,3.90
2018-02-11T16:21:09.508Z,3.80
2018-02-11T16:23:37.732Z,3.80
2018-02-11T16:26:05.966Z,3.70
2018-02-11T16:28:34.145Z,3.80
2018-02-11T16:31:02.428Z,3.80
2018-02-11T16:33:30.657Z,3.80
2018-02-11T16:35:58.837Z,3.80
2018-02-11T16:38:27.037Z,3.70
2018-02-11T16:40:55.233Z,3.70
2018-02-11T16:43:24.224Z,4.00
2018-02-11T16:45:53.312Z,4.00
2018-02-11T16:48:21.520Z,4.00
2018-02-11T16:50:49.702Z,4.00
2018-02-11T16:53:17.917Z,4.10
2018-02-11T16:55:46.126Z,4.20
2018-02-11T16:58:15.124Z,4.20
2018-02-11T17:00:43.444Z,4.20
2018-02-11T17:03:11.901Z,4.20
2018-02-11T17:05:40.100Z,4.20
2018-02-11T17:08:08.284Z,4.20
2018-02-11T17:10:36.707Z,4.30
2018-02-11T17:13:05.135Z,4.20
2018-02-11T17:15:33.366Z,4.10
2018-02-11T17:18:01.586Z,4.20
2018-02-11T17:20:29.768Z,4.10
2018-02-11T17:22:57.949Z,4.30
2018-02-11T17:25:26.210Z,4.40
2018-02-11T17:27:54.366Z,4.40
2018-02-11T17:30:22.549Z,4.30
2018-02-11T17:32:51.035Z,4.30
2018-02-11T17:35:19.212Z,4.40
2018-02-11T17:37:47.397Z,4.40
2018-02-11T17:40:15.704Z,4.30
2018-02-11T17:42:43.896Z,4.40
2018-02-11T17:45:12.089Z,4.40
2018-02-11T17:47:40.325Z,4.40
2018-02-11T17:50:08.497Z,4.40
2018-02-11T17:52:36.700Z,4.40
2018-02-11T17:55:04.937Z,4.50
2018-02-11T17:57:33.941Z,4.50
2018-02-11T18:00:02.152Z,4.50
2018-02-11T18:02:30.392Z,4.60
2018-02-11T18:04:58.568Z,4.60
2018-02-11T18:07:26.750Z,4.60
2018-02-11T18:09:54.971Z,4.50
2018-02-11T18:12:23.185Z,4.50
2018-02-11T18:14:51.533Z,4.50
2018-02-11T18:17:20.360Z,4.40
2018-02-11T18:19:48.549Z,4.50
2018-02-11T18:22:16.793Z,4.40
2018-02-11T18:24:45.001Z,4.60
2018-02-11T18:27:13.221Z,4.60
2018-02-11T18:29:42.216Z,4.70
2018-02-11T18:32:11.211Z,4.80
2018-02-11T18:34:40.212Z,4.70
2018-02-11T18:37:08.405Z,4.70
2018-02-11T18:39:36.628Z,4.80
2018-02-11T18:42:07.773Z,4.80
2018-02-11T18:44:35.986Z,4.70
2018-02-11T18:47:04.161Z,4.50
2018-02-11T18:49:32.363Z,4.50
2018-02-11T18:52:00.543Z,4.50
2018-02-11T18:54:28.745Z,4.50
2018-02-11T18:56:57.020Z,4.40
2018-02-11T18:59:25.225Z,4.40
2018-02-11T19:01:53.428Z,4.40
2018-02-11T19:04:21.648Z,4.50
2018-02-11T19:06:50.616Z,4.30
2018-02-11T19:09:18.822Z,4.30
2018-02-11T19:11:47.802Z,4.30
2018-02-11T19:14:15.985Z,4.30
2018-02-11T19:16:44.997Z,4.40
2018-02-11T19:19:13.233Z,4.40
2018-02-11T19:21:41.432Z,4.40
2018-02-11T19:24:10.429Z,4.30
2018-02-11T19:26:39.388Z,4.40
2018-02-11T19:29:07.609Z,4.40
2018-02-11T19:31:35.918Z,4.50
2018-02-11T19:34:04.108Z,4.40
2018-02-11T19:36:32.285Z,4.40
2018-02-11T19:39:00.512Z,4.30
2018-02-11T19:41:29.605Z,4.20
2018-02-11T19:43:57.817Z,4.20
2018-02-11T19:46:26.156Z,4.20
2018-02-11T19:48:54.372Z,4.30
2018-02-11T19:51:22.548Z,4.40
2018-02-11T19:53:50.739Z,4.30
2018-02-11T19:56:19.701Z,4.20
2018-02-11T19:58:47.888Z,4.20
2018-02-11T20:01:16.488Z,4.20
2018-02-11T20:03:45.947Z,4.20
2018-02-11T20:06:14.153Z,4.20
2018-02-11T20:08:42.369Z,4.00
2018-02-11T20:11:10.546Z,4.10
2018-02-11T20:13:38.757Z,4.10
2018-02-11T20:16:06.969Z,4.20
2018-02-11T20:18:35.908Z,4.10
2018-02-11T20:21:04.096Z,4.10
2018-02-11T20:23:32.413Z,3.90
2018-02-11T20:26:01.410Z,3.90
2018-02-11T20:28:30.332Z,3.90
2018-02-11T20:30:58.574Z,3.90
2018-02-11T20:33:26.779Z,4.00
2018-02-11T20:35:54.980Z,3.90
2018-02-11T20:38:23.200Z,4.00
2018-02-11T20:40:51.397Z,3.90
2018-02-11T20:43:19.621Z,4.10
2018-02-11T20:45:49.357Z,3.90
2018-02-11T20:48:17.612Z,3.90
2018-02-11T20:50:46.588Z,3.80
2018-02-11T20:53:14.815Z,3.80
2018-02-11T20:55:42.990Z,3.80
2018-02-11T20:58:11.217Z,3.80
2018-02-11T21:00:39.567Z,3.70
2018-02-11T21:03:07.797Z,3.80
2018-02-11T21:05:36.164Z,3.90
2018-02-11T21:08:05.121Z,3.90
2018-02-11T21:10:33.305Z,3.90
2018-02-11T21:13:01.528Z,4.00
2018-02-11T21:15:29.714Z,3.90
2018-02-11T21:17:57.916Z,4.00
2018-02-11T21:20:26.224Z,4.00
2018-02-11T21:22:54.413Z,3.90
2018-02-11T21:25:23.494Z,3.80
2018-02-11T21:27:52.445Z,3.70
2018-02-11T21:30:21.280Z,3.70
2018-02-11T21:32:49.544Z,3.50
2018-02-11T21:35:18.529Z,3.40
2018-02-11T21:37:47.473Z,3.50
2018-02-11T21:40:15.668Z,3.40
2018-02-11T21:42:44.497Z,3.40
2018-02-11T21:45:12.682Z,3.30
2018-02-11T21:47:40.852Z,3.50
2018-02-11T21:50:09.110Z,3.60
2018-02-11T21:52:38.165Z,3.70
2018-02-11T21:55:06.376Z,3.70
2018-02-11T21:57:35.365Z,3.50
2018-02-11T22:00:04.309Z,3.50
2018-02-11T22:02:32.522Z,3.50
2018-02-11T22:05:00.816Z,3.40
2018-02-11T22:07:29.011Z,3.50
2018-02-11T22:09:57.221Z,3.40
2018-02-11T22:12:25.612Z,3.40
2018-02-11T22:14:54.590Z,3.50
2018-02-11T22:17:22.785Z,3.50
2018-02-11T22:19:51.274Z,3.40
2018-02-11T22:22:20.358Z,3.40
2018-02-11T22:24:48.533Z,3.40
2018-02-11T22:27:16.802Z,3.40
2018-02-11T22:29:45.032Z,3.40
2018-02-11T23:54:10.890Z,3.50
2018-02-11T23:56:39.072Z,2.30
2018-02-11T23:59:07.248Z,2.20
